Time;durP1;ratioP1;P1;durP2;ratioP2;P2;SDS_P1;SDS_P2;PMS_P1;PMS_P2;Temp;Humidity;BMP_temperature;BMP_pressure;BME280_temperature;BME280_humidity;BME280_pressure;Samples;Min_cycle;Max_cycle;Signal;HPM_P1;HPM_P2
2022/04/16 00:02:15;;;;;;;11.73;7.60;;;;;;;11.19;52.50;102998.28;4940961;28;123973;-67
2022/04/16 00:04:45;;;;;;;15.52;8.73;;;;;;;11.18;52.94;102998.28;4945026;28;115091;-67
2022/04/16 00:07:13;;;;;;;11.85;7.90;;;;;;;11.15;52.71;103003.63;4943058;28;114367;-66
2022/04/16 00:09:42;;;;;;;11.85;7.88;;;;;;;11.12;52.95;103008.97;4938135;28;124049;-67
2022/04/16 00:12:09;;;;;;;11.48;7.68;;;;;;;11.09;52.91;103000.16;4934463;28;123896;-67
2022/04/16 00:14:38;;;;;;;14.63;8.32;;;;;;;11.07;52.83;103012.53;4941482;28;114507;-67
2022/04/16 00:17:06;;;;;;;14.32;8.73;;;;;;;11.06;52.82;103015.25;4959670;28;112954;-67
2022/04/16 00:19:34;;;;;;;14.10;8.93;;;;;;;11.02;53.21;103009.09;4938674;28;123818;-67
2022/04/16 00:22:01;;;;;;;13.13;7.97;;;;;;;10.99;53.01;103009.13;4930695;28;124953;-67
2022/04/16 00:24:29;;;;;;;13.88;8.15;;;;;;;10.94;52.90;103005.63;4935124;28;115612;-67
2022/04/16 00:26:56;;;;;;;13.00;8.73;;;;;;;10.91;52.93;103005.69;4951169;28;113965;-67
2022/04/16 00:29:24;;;;;;;13.30;8.63;;;;;;;10.88;53.24;103005.72;4955484;28;123951;-66
2022/04/16 00:31:52;;;;;;;15.40;8.57;;;;;;;10.85;53.29;103011.03;4934417;28;123763;-66
2022/04/16 00:34:19;;;;;;;13.82;8.90;;;;;;;10.80;53.02;103013.75;4950617;28;113135;-67
2022/04/16 00:36:47;;;;;;;16.70;10.18;;;;;;;10.77;53.33;103007.59;4937935;28;112917;-67
2022/04/16 00:39:15;;;;;;;15.45;9.02;;;;;;;10.74;53.30;103010.28;4940331;28;124137;-67
2022/04/16 00:41:43;;;;;;;15.82;9.80;;;;;;;10.68;53.63;103006.81;4934827;28;122831;-67
2022/04/16 00:44:10;;;;;;;17.42;9.90;;;;;;;10.65;53.40;103006.84;4956395;28;114356;-67
2022/04/16 00:46:37;;;;;;;17.15;10.00;;;;;;;10.62;53.92;103004.22;4939325;28;113731;-67
2022/04/16 00:49:04;;;;;;;19.85;10.68;;;;;;;10.58;53.85;103002.50;4941842;28;123156;-67
2022/04/16 00:51:31;;;;;;;16.80;10.07;;;;;;;10.55;53.93;103001.66;4931052;28;123778;-67
2022/04/16 00:54:00;;;;;;;17.30;10.63;;;;;;;10.52;53.83;102994.63;4936464;28;113387;-67
2022/04/16 00:56:27;;;;;;;16.13;9.63;;;;;;;10.50;54.06;102999.06;4939725;28;112936;-67
2022/04/16 00:58:55;;;;;;;17.13;10.45;;;;;;;10.48;54.19;103000.84;4955943;28;123058;-68
2022/04/16 01:01:22;;;;;;;18.80;10.82;;;;;;;10.47;54.41;102999.06;4951580;28;124209;-67
2022/04/16 01:03:50;;;;;;;19.73;10.73;;;;;;;10.45;54.09;103001.75;4954739;28;113211;-67
2022/04/16 01:06:17;;;;;;;18.80;10.45;;;;;;;10.42;54.22;103006.22;4941872;28;113756;-67
2022/04/16 01:08:45;;;;;;;18.50;10.68;;;;;;;10.41;54.32;102999.13;4952979;28;123548;-68
2022/04/16 01:11:13;;;;;;;19.67;10.23;;;;;;;10.41;54.64;102999.13;4940217;28;123934;-68
2022/04/16 01:13:45;;;;;;;20.55;11.80;;;;;;;10.42;54.81;103006.22;4939088;28;115600;-68
2022/04/16 01:16:13;;;;;;;21.27;11.18;;;;;;;10.40;54.78;103002.69;4934180;28;114669;-67
2022/04/16 01:18:46;;;;;;;22.92;11.43;;;;;;;10.40;54.53;103008.88;4952963;28;123008;-67
2022/04/16 01:21:14;;;;;;;17.85;11.27;;;;;;;10.41;54.76;103009.75;4933349;28;124226;-68
2022/04/16 01:23:41;;;;;;;19.15;11.48;;;;;;;10.39;55.03;103016.81;4939389;28;113289;-67
2022/04/16 01:26:09;;;;;;;17.10;10.80;;;;;;;10.39;54.65;103016.81;4953182;28;113545;-67
2022/04/16 01:28:36;;;;;;;18.10;10.43;;;;;;;10.39;54.92;103016.81;4964136;28;123180;-67
2022/04/16 01:31:04;;;;;;;21.38;11.55;;;;;;;10.39;54.75;103022.13;4942917;28;122841;-68
2022/04/16 01:33:31;;;;;;;19.42;11.05;;;;;;;10.38;54.84;103026.56;4933328;28;114292;-67
2022/04/16 01:35:58;;;;;;;19.25;10.23;;;;;;;10.38;55.07;103020.34;4957022;28;114037;-67
2022/04/16 01:38:25;;;;;;;17.65;10.38;;;;;;;10.37;54.59;103018.63;4951715;28;122942;-67
2022/04/16 01:40:57;;;;;;;17.38;10.77;;;;;;;10.36;54.71;103016.84;4928892;28;123931;-68
2022/04/16 01:43:29;;;;;;;18.83;10.60;;;;;;;10.32;54.84;103032.78;4946832;28;113260;-67
2022/04/16 01:45:58;;;;;;;18.40;9.88;;;;;;;10.29;54.81;103027.47;4932302;28;113866;-68
2022/04/16 01:48:27;;;;;;;17.35;10.63;;;;;;;10.25;54.72;103036.34;4936680;28;123851;-67
2022/04/16 01:50:54;;;;;;;19.15;10.48;;;;;;;10.23;55.04;103038.13;4933560;28;124000;-67
2022/04/16 01:53:22;;;;;;;18.77;11.35;;;;;;;10.23;54.75;103037.25;4929926;28;114492;-67
2022/04/16 01:55:49;;;;;;;18.92;11.07;;;;;;;10.20;55.07;103032.84;4930351;28;114642;-67
2022/04/16 01:58:17;;;;;;;17.77;10.48;;;;;;;10.19;55.27;103033.75;4933125;28;123874;-67
2022/04/16 02:00:44;;;;;;;19.92;11.18;;;;;;;10.19;54.89;103036.41;4932025;28;122734;-67
2022/04/16 02:03:12;;;;;;;18.50;10.38;;;;;;;10.17;54.98;103027.59;4948289;28;115442;-67
2022/04/16 02:05:39;;;;;;;19.42;10.90;;;;;;;10.16;55.00;103033.75;4952135;28;114372;-67
2022/04/16 02:08:07;;;;;;;19.63;10.70;;;;;;;10.14;54.86;103033.75;4951488;28;123988;-67
2022/04/16 02:10:35;;;;;;;19.70;10.95;;;;;;;10.14;55.12;103038.19;4939910;28;124900;-67
2022/04/16 02:13:02;;;;;;;18.60;11.43;;;;;;;10.12;55.22;103032.03;4948746;28;114345;-67
2022/04/16 02:15:29;;;;;;;21.08;11.68;;;;;;;10.10;55.25;103031.16;4935259;28;113788;-67
2022/04/16 02:17:57;;;;;;;21.10;11.07;;;;;;;10.09;55.40;103024.09;4951353;28;124643;-67
2022/04/16 02:20:24;;;;;;;18.35;11.23;;;;;;;10.09;55.41;103034.69;4951522;28;123446;-67
2022/04/16 02:22:52;;;;;;;19.55;11.00;;;;;;;10.07;55.37;103028.53;4929696;28;114367;-68
2022/04/16 02:25:20;;;;;;;21.73;11.82;;;;;;;10.07;55.43;103036.47;4941556;28;114298;-67
2022/04/16 02:27:47;;;;;;;19.38;10.98;;;;;;;10.06;55.50;103029.44;4939079;28;124160;-67
2022/04/16 02:30:16;;;;;;;21.35;11.32;;;;;;;10.05;55.58;103032.97;4942590;28;123955;-67
2022/04/16 02:32:48;;;;;;;20.48;12.32;;;;;;;10.04;55.70;103032.09;4942816;28;114179;-69
2022/04/16 02:35:17;;;;;;;21.17;11.50;;;;;;;10.04;55.23;103037.38;4933512;28;114049;-67
2022/04/16 02:37:45;;;;;;;20.40;11.68;;;;;;;10.03;55.38;103034.75;4933819;28;124194;-67
2022/04/16 02:40:13;;;;;;;20.98;11.77;;;;;;;10.01;55.47;103032.09;4944391;28;124803;-67
2022/04/16 02:42:45;;;;;;;19.58;11.63;;;;;;;9.99;55.56;103033.00;4930507;28;114482;-68
2022/04/16 02:48:00;;;;;;;23.10;10.93;;;;;;;9.96;55.67;103038.31;4948763;28;123519;-68
2022/04/16 02:50:28;;;;;;;18.55;11.18;;;;;;;9.91;55.67;103036.59;4949237;28;123421;-68
2022/04/16 02:52:56;;;;;;;21.77;11.52;;;;;;;9.91;55.61;103041.88;4937416;28;115228;-68
2022/04/16 02:55:25;;;;;;;23.33;11.98;;;;;;;9.90;55.62;103034.81;4938475;28;114937;-68
2022/04/16 02:57:53;;;;;;;19.70;11.60;;;;;;;9.88;55.63;103041.91;4949889;28;123351;-68
2022/04/16 03:00:20;;;;;;;21.17;12.05;;;;;;;9.88;55.87;103047.19;4928957;28;123129;-68
2022/04/16 03:02:50;;;;;;;20.95;12.07;;;;;;;9.87;55.69;103056.03;4931427;28;114837;-68
2022/04/16 03:05:17;;;;;;;20.23;11.98;;;;;;;9.87;55.83;103050.75;4945197;28;114573;-67
2022/04/16 03:07:45;;;;;;;22.80;12.52;;;;;;;9.87;55.90;103056.03;4933492;28;123962;-69
2022/04/16 03:10:12;;;;;;;19.83;11.23;;;;;;;9.86;55.83;103051.63;4945485;28;123858;-68
2022/04/16 03:12:47;;;;;;;21.10;11.48;;;;;;;9.86;56.27;103059.56;4933940;28;114355;-67
2022/04/16 03:18:03;;;;;;;20.40;11.20;;;;;;;9.86;56.00;103059.56;4938594;28;125367;-67
2022/04/16 03:20:31;;;;;;;23.42;12.43;;;;;;;9.85;55.89;103052.53;4936365;28;124389;-67
2022/04/16 03:23:00;;;;;;;22.10;11.93;;;;;;;9.83;55.67;103059.59;4937455;28;114247;-68
2022/04/16 03:25:30;;;;;;;19.92;11.52;;;;;;;9.84;56.07;103056.03;4954640;28;112206;-67
2022/04/16 03:27:58;;;;;;;22.20;12.88;;;;;;;9.82;56.31;103057.81;4949584;28;123248;-68
2022/04/16 03:30:25;;;;;;;22.00;11.85;;;;;;;9.83;56.18;103054.31;4945223;28;123724;-68
2022/04/16 03:32:57;;;;;;;20.42;11.60;;;;;;;9.83;55.99;103054.31;4937094;28;97490;-68
2022/04/16 03:35:24;;;;;;;22.05;11.95;;;;;;;9.83;56.13;103053.41;4934486;28;113997;-68
2022/04/16 03:37:51;;;;;;;23.95;11.77;;;;;;;9.82;56.03;103052.53;4934670;28;124515;-68
2022/04/16 03:40:19;;;;;;;20.35;12.18;;;;;;;9.81;55.89;103050.75;4972472;22;123418;-78
2022/04/16 03:42:51;;;;;;;20.65;12.02;;;;;;;9.81;55.70;103060.47;4958050;28;113446;-78
2022/04/16 03:45:20;;;;;;;20.38;12.35;;;;;;;9.79;55.67;103060.47;4967781;28;114544;-78
2022/04/16 03:47:48;;;;;;;21.15;12.30;;;;;;;9.78;55.97;103052.56;4949552;28;123874;-78
2022/04/16 03:50:16;;;;;;;21.00;12.27;;;;;;;9.77;55.84;103054.31;4970493;28;122930;-78
2022/04/16 03:52:45;;;;;;;23.92;12.75;;;;;;;9.73;55.94;103057.88;4957783;28;113083;-78
2022/04/16 04:00:49;;;;;;;23.83;13.13;;;;;;;9.65;55.75;103070.28;4958979;28;123224;-77
2022/04/16 04:03:16;;;;;;;24.90;13.27;;;;;;;9.64;56.05;103063.22;4950591;28;114032;-77
2022/04/16 04:05:45;;;;;;;23.30;12.48;;;;;;;9.63;55.97;103072.06;4974170;28;114020;-77
2022/04/16 04:08:12;;;;;;;22.95;12.50;;;;;;;9.62;56.10;103080.88;4955819;28;123975;-77
2022/04/16 04:10:39;;;;;;;26.50;13.25;;;;;;;9.60;56.31;103072.06;4935989;28;122614;-78
2022/04/16 04:13:06;;;;;;;21.70;12.88;;;;;;;9.59;56.16;103075.56;4969040;28;113488;-77
2022/04/16 04:15:34;;;;;;;26.05;13.27;;;;;;;9.57;56.26;103082.66;4971729;28;112399;-78
2022/04/16 04:18:01;;;;;;;25.33;13.02;;;;;;;9.54;56.11;103084.41;4963004;28;123936;-77
2022/04/16 04:20:28;;;;;;;27.17;13.05;;;;;;;9.50;56.49;103082.69;4975024;28;121911;-78
2022/04/16 04:22:56;;;;;;;24.77;13.23;;;;;;;9.49;56.30;103080.03;4947273;28;113716;-78
2022/04/16 04:25:23;;;;;;;22.67;12.80;;;;;;;9.46;56.05;103086.22;4969419;28;114150;-78
2022/04/16 04:27:51;;;;;;;25.55;13.63;;;;;;;9.43;56.56;103080.94;4963320;28;122295;-77
2022/04/16 04:30:18;;;;;;;26.08;14.05;;;;;;;9.42;56.52;103084.50;4955981;28;123863;-77
2022/04/16 04:32:45;;;;;;;26.95;14.05;;;;;;;9.37;56.70;103080.97;4955520;28;115590;-77
2022/04/16 04:35:12;;;;;;;24.58;13.32;;;;;;;9.34;56.28;103086.28;4957192;28;115403;-79
2022/04/16 04:37:42;;;;;;;23.08;13.65;;;;;;;9.30;56.77;103095.09;4972112;28;123431;-77
2022/04/16 04:40:09;;;;;;;25.48;13.77;;;;;;;9.25;56.43;103088.94;4963891;28;122799;-77
2022/04/16 04:42:37;;;;;;;25.77;13.63;;;;;;;9.21;56.72;103095.13;4963054;28;114270;-78
2022/04/16 04:45:09;;;;;;;26.83;14.27;;;;;;;9.16;56.94;103103.97;4953178;28;114088;-78
2022/04/16 04:47:37;;;;;;;29.65;15.07;;;;;;;9.13;56.91;103103.97;4954289;28;123200;-78
2022/04/16 04:50:05;;;;;;;27.95;14.52;;;;;;;9.10;57.18;103104.00;4969895;28;123847;-78
2022/04/16 04:52:35;;;;;;;28.48;14.57;;;;;;;9.07;57.38;103109.28;4956892;28;114509;-79
2022/04/16 04:55:05;;;;;;;28.10;14.50;;;;;;;9.08;57.58;103116.34;4954180;28;113475;-79
2022/04/16 04:57:32;;;;;;;27.13;15.68;;;;;;;9.04;57.31;103109.28;4955814;28;124241;-79
2022/04/16 04:59:59;;;;;;;27.05;14.38;;;;;;;9.03;57.44;103118.09;4952025;28;123773;-79
2022/04/16 05:02:27;;;;;;;30.80;15.23;;;;;;;9.03;57.84;103118.09;4955212;28;114181;-79
2022/04/16 05:04:56;;;;;;;27.00;14.98;;;;;;;9.03;57.70;103122.50;4962067;28;113804;-79
2022/04/16 05:07:23;;;;;;;28.45;15.02;;;;;;;9.03;57.52;103128.66;4960582;28;125323;-80
2022/04/16 05:09:50;;;;;;;30.55;15.50;;;;;;;9.04;58.25;103122.50;4979338;28;123653;-79
2022/04/16 05:12:18;;;;;;;29.20;15.50;;;;;;;9.04;58.04;103130.44;4962252;28;114486;-79
2022/04/16 05:14:46;;;;;;;31.48;16.27;;;;;;;9.04;58.24;103127.78;4963814;28;113290;-79
2022/04/16 05:17:13;;;;;;;33.78;16.98;;;;;;;9.07;58.28;103133.06;4956155;28;123840;-79
2022/04/16 05:19:40;;;;;;;26.85;15.32;;;;;;;9.08;58.61;103132.19;4973425;28;123437;-78
2022/04/16 05:22:07;;;;;;;32.53;16.48;;;;;;;9.09;58.48;103139.22;4950370;28;116518;-78
2022/04/16 05:24:34;;;;;;;30.42;15.45;;;;;;;9.11;58.50;103145.38;4958750;28;114744;-79
2022/04/16 05:27:01;;;;;;;31.67;16.13;;;;;;;9.13;58.51;103146.25;4965936;28;123518;-78
2022/04/16 05:29:48;;;;;;;31.05;15.50;;;;;;;9.16;58.68;103151.56;4955151;28;126327;-78
2022/04/16 05:32:16;;;;;;;30.25;16.05;;;;;;;9.18;58.87;103148.91;4970855;28;114002;-79
2022/04/16 05:34:43;;;;;;;29.30;15.13;;;;;;;9.22;58.61;103155.06;4967404;28;112286;-78
2022/04/16 05:37:10;;;;;;;32.25;16.10;;;;;;;9.26;58.82;103157.69;4969920;28;123094;-78
2022/04/16 05:39:38;;;;;;;29.70;15.57;;;;;;;9.31;58.55;103160.34;4954886;28;123170;-78
2022/04/16 05:42:06;;;;;;;29.63;15.75;;;;;;;9.36;58.47;103153.25;4954788;28;113662;-79
2022/04/16 05:44:33;;;;;;;27.85;14.90;;;;;;;9.40;58.74;103160.31;4965141;28;114237;-79
2022/04/16 05:47:00;;;;;;;28.65;15.57;;;;;;;9.46;58.92;103160.28;4948041;28;123674;-78
2022/04/16 05:49:27;;;;;;;32.03;17.25;;;;;;;9.51;59.21;103166.47;4955337;28;123954;-79
2022/04/16 05:51:59;;;;;;;31.25;16.48;;;;;;;9.57;59.37;103167.31;4953395;28;113516;-79
2022/04/16 05:54:27;;;;;;;32.55;17.40;;;;;;;9.62;59.41;103154.94;4949641;28;113943;-79
2022/04/16 05:56:54;;;;;;;32.28;16.92;;;;;;;9.69;59.26;103167.28;4947591;28;123880;-79
2022/04/16 05:59:22;;;;;;;32.90;17.30;;;;;;;9.72;59.35;103161.97;4964806;28;124005;-79
2022/04/16 06:01:49;;;;;;;35.58;17.40;;;;;;;9.79;59.80;103171.63;4968782;28;113261;-79
2022/04/16 06:04:17;;;;;;;34.00;17.48;;;;;;;9.84;59.63;103177.78;4951325;28;113341;-79
2022/04/16 06:06:46;;;;;;;35.67;18.15;;;;;;;9.89;59.66;103176.00;4954343;28;124241;-78
2022/04/16 06:09:14;;;;;;;32.92;17.02;;;;;;;9.96;59.57;103176.84;4957599;28;124153;-79
2022/04/16 06:11:42;;;;;;;33.47;18.17;;;;;;;10.02;59.62;103171.53;4953980;28;115056;-78
2022/04/16 06:14:09;;;;;;;34.25;17.02;;;;;;;10.09;59.84;103177.66;4967085;28;114715;-79
2022/04/16 06:16:36;;;;;;;33.03;17.75;;;;;;;10.15;59.62;103177.63;4954882;28;125112;-78
2022/04/16 06:19:04;;;;;;;34.33;18.05;;;;;;;10.21;59.65;103182.00;4950425;28;123970;-78
2022/04/16 06:21:31;;;;;;;32.03;17.02;;;;;;;10.27;59.74;103182.88;4947105;28;113387;-78
2022/04/16 06:23:58;;;;;;;31.33;17.15;;;;;;;10.36;59.66;103186.38;4951490;28;114747;-78
2022/04/16 06:26:26;;;;;;;31.88;17.50;;;;;;;10.43;59.79;103193.41;4957218;28;124129;-78
2022/04/16 06:28:53;;;;;;;32.65;16.77;;;;;;;10.51;59.66;103196.88;4953590;28;124391;-79
2022/04/16 06:31:20;;;;;;;33.25;17.08;;;;;;;10.58;59.97;103187.97;4968421;28;113533;-79
2022/04/16 06:33:47;;;;;;;33.28;16.83;;;;;;;10.66;59.53;103196.78;4953989;28;113112;-79
2022/04/16 06:36:14;;;;;;;35.45;18.00;;;;;;;10.75;59.76;103192.28;4955525;28;124245;-79
2022/04/16 06:38:42;;;;;;;32.65;17.60;;;;;;;10.82;59.84;103191.34;4948338;28;122963;-79
2022/04/16 06:41:09;;;;;;;33.17;18.02;;;;;;;10.91;59.94;103201.88;4948732;28;113349;-79
2022/04/16 06:43:36;;;;;;;31.42;17.67;;;;;;;10.99;59.74;103205.31;4950474;28;114587;-79
2022/04/16 06:46:04;;;;;;;32.97;17.25;;;;;;;11.04;60.05;103200.88;4951082;28;123212;-79
2022/04/16 06:48:31;;;;;;;32.58;16.83;;;;;;;11.12;59.78;103206.09;4951125;28;124036;-79
2022/04/16 06:50:59;;;;;;;34.15;18.13;;;;;;;11.21;60.03;103208.69;4968455;28;114983;-79
2022/04/16 06:53:27;;;;;;;28.10;17.80;;;;;;;11.33;60.29;103214.75;4953964;28;114256;-79
2022/04/16 06:55:54;;;;;;;31.98;16.85;;;;;;;11.42;60.10;103210.22;4965707;28;123277;-79
2022/04/16 06:58:21;;;;;;;32.95;17.42;;;;;;;11.56;60.10;103211.84;4951480;28;123843;-78
2022/04/16 07:00:48;;;;;;;29.92;16.60;;;;;;;11.66;60.12;103202.91;4965565;28;115008;-79
2022/04/16 07:03:15;;;;;;;28.25;15.75;;;;;;;11.80;59.93;103206.25;4949064;28;115071;-79
2022/04/16 07:05:42;;;;;;;28.90;16.25;;;;;;;11.94;59.78;103202.56;4949903;28;123987;-79
2022/04/16 07:08:09;;;;;;;29.02;15.52;;;;;;;12.10;59.92;103198.84;4951223;28;123178;-79
2022/04/16 07:10:36;;;;;;;24.45;15.32;;;;;;;12.26;60.11;103205.69;4974378;28;114487;-79
2022/04/16 07:13:04;;;;;;;23.77;14.27;;;;;;;12.42;59.76;103194.84;4954075;28;113243;-79
2022/04/16 07:15:33;;;;;;;26.25;15.25;;;;;;;12.57;59.44;103199.03;4955922;28;124128;-79
2022/04/16 07:18:00;;;;;;;26.70;15.40;;;;;;;12.69;59.05;103203.28;4953684;28;123920;-79
2022/04/16 07:20:28;;;;;;;28.50;14.90;;;;;;;12.80;59.09;103206.66;4963101;28;114263;-78
2022/04/16 07:23:01;;;;;;;25.63;14.27;;;;;;;12.93;59.03;103202.88;4978025;28;114567;-78
2022/04/16 07:25:32;;;;;;;24.60;14.18;;;;;;;13.05;58.85;103207.09;4978554;28;122156;-79
2022/04/16 07:27:59;;;;;;;25.38;14.40;;;;;;;13.17;58.90;103206.03;4955675;28;122190;-78
2022/04/16 07:30:27;;;;;;;24.92;13.27;;;;;;;13.29;58.31;103211.09;4968894;28;113544;-79
2022/04/16 07:32:54;;;;;;;22.90;13.38;;;;;;;13.41;58.34;103205.59;4973062;28;113098;-79
2022/04/16 07:35:27;;;;;;;23.33;14.45;;;;;;;13.52;58.12;103201.84;4959714;28;122237;-79
2022/04/16 07:37:57;;;;;;;22.77;13.85;;;;;;;13.64;57.89;103196.28;4958754;28;124188;-79
2022/04/16 07:40:25;;;;;;;22.13;13.50;;;;;;;13.72;57.65;103202.34;4968500;28;113284;-79
2022/04/16 07:42:52;;;;;;;24.13;15.38;;;;;;;13.83;57.44;103205.66;4951362;28;113490;-79
2022/04/16 07:45:21;;;;;;;23.10;13.43;;;;;;;13.90;57.11;103197.53;4951530;28;122701;-78
2022/04/16 07:47:48;;;;;;;23.42;13.25;;;;;;;13.95;56.95;103201.84;4952782;28;122789;-79
2022/04/16 07:50:16;;;;;;;21.70;13.73;;;;;;;14.03;56.84;103199.00;4968349;28;114097;-79
2022/04/16 07:52:44;;;;;;;23.50;13.85;;;;;;;14.10;56.70;103208.63;4949586;28;114759;-79
2022/04/16 07:55:15;;;;;;;21.80;12.85;;;;;;;14.18;56.63;103204.03;4951956;28;122376;-79
2022/04/16 07:57:42;;;;;;;19.77;12.23;;;;;;;14.27;56.72;103202.06;4949569;28;123269;-79
2022/04/16 08:00:10;;;;;;;22.40;12.75;;;;;;;14.36;56.59;103197.38;4952950;28;114400;-79
2022/04/16 08:02:38;;;;;;;22.00;12.75;;;;;;;14.49;56.46;103203.31;4951256;28;114051;-79
2022/04/16 08:05:06;;;;;;;21.73;12.50;;;;;;;14.57;55.89;103206.69;4956142;28;123847;-79
2022/04/16 08:07:33;;;;;;;19.48;11.73;;;;;;;14.65;56.09;103202.97;4933688;28;123767;-79
2022/04/16 08:10:00;;;;;;;16.90;10.75;;;;;;;14.73;55.92;103207.22;4949366;28;114398;-79
2022/04/16 08:12:27;;;;;;;19.73;11.27;;;;;;;14.82;55.68;103195.41;4957415;28;114300;-79
2022/04/16 08:14:54;;;;;;;18.77;11.05;;;;;;;14.91;55.36;103211.19;4972622;28;123331;-79
2022/04/16 08:17:21;;;;;;;19.83;11.13;;;;;;;15.03;55.42;103203.78;4951811;28;123267;-79
2022/04/16 08:19:49;;;;;;;19.17;10.35;;;;;;;15.12;55.23;103208.91;4953741;28;114370;-80
2022/04/16 08:22:21;;;;;;;15.90;10.18;;;;;;;15.23;55.29;103211.28;4956157;28;114251;-79
2022/04/16 08:27:37;;;;;;;17.63;10.32;;;;;;;15.37;54.15;103210.00;4952166;28;122834;-79
2022/04/16 08:30:04;;;;;;;16.23;9.98;;;;;;;15.43;53.65;103218.78;4952941;28;112950;-79
2022/04/16 08:32:35;;;;;;;15.90;9.98;;;;;;;15.47;53.79;103209.75;4957653;28;114173;-79
2022/04/16 08:35:03;;;;;;;17.17;10.57;;;;;;;15.52;53.35;103213.16;4965037;28;123787;-79
2022/04/16 08:37:31;;;;;;;14.82;9.68;;;;;;;15.54;53.33;103211.34;4951281;28;123172;-79
2022/04/16 08:39:58;;;;;;;15.70;10.07;;;;;;;15.60;53.46;103216.50;4953918;28;115194;-78
2022/04/16 08:42:25;;;;;;;15.10;9.77;;;;;;;15.71;53.43;103214.41;4952562;28;114623;-78
2022/04/16 08:44:53;;;;;;;16.90;9.60;;;;;;;15.84;53.54;103209.63;4954443;28;124340;-78
2022/04/16 08:47:20;;;;;;;13.25;8.68;;;;;;;15.94;52.88;103215.56;4951293;28;124225;-78
2022/04/16 08:49:47;;;;;;;13.77;9.15;;;;;;;15.99;51.90;103218.94;4950962;28;114056;-78
2022/04/16 08:52:15;;;;;;;15.88;9.07;;;;;;;16.02;52.02;103216.19;4951680;28;112861;-78
2022/04/16 08:54:42;;;;;;;13.35;8.55;;;;;;;16.11;52.29;103223.94;4953719;28;123798;-78
2022/04/16 08:57:09;;;;;;;15.40;8.10;;;;;;;16.22;51.56;103230.75;4954243;28;124876;-78
2022/04/16 08:59:36;;;;;;;12.82;7.97;;;;;;;16.28;51.38;103219.88;4951736;28;114541;-78
2022/04/16 09:02:04;;;;;;;13.00;7.90;;;;;;;16.35;51.00;103222.31;4951100;28;114585;-78
2022/04/16 09:04:31;;;;;;;11.80;7.35;;;;;;;16.43;50.91;103224.75;4965379;28;123683;-78
2022/04/16 09:07:01;;;;;;;11.60;7.75;;;;;;;16.51;50.93;103228.03;4950907;28;123441;-78
2022/04/16 09:09:28;;;;;;;13.02;8.50;;;;;;;16.60;50.69;103220.66;4966293;28;114561;-78
2022/04/16 09:11:56;;;;;;;14.20;7.55;;;;;;;16.66;50.30;103226.69;4949985;28;113070;-78
2022/04/16 09:14:36;;;;;;;12.27;7.70;;;;;;;16.68;50.02;103218.59;4969182;28;123768;-78
2022/04/16 09:17:08;;;;;;;11.75;8.50;;;;;;;16.71;49.52;103218.53;4966856;28;123957;-78
2022/04/16 09:19:36;;;;;;;10.75;7.22;;;;;;;16.72;48.97;103220.25;4968869;28;114017;-78
2022/04/16 09:22:03;;;;;;;13.65;8.15;;;;;;;16.71;48.71;103218.53;4969219;28;114258;-78
2022/04/16 09:24:47;;;;;;;14.95;7.68;;;;;;;16.75;49.32;103220.16;4969969;28;124507;-78
2022/04/16 09:27:15;;;;;;;12.68;7.70;;;;;;;16.83;48.97;103212.78;4968279;28;123369;-78
2022/04/16 09:29:46;;;;;;;9.90;6.25;;;;;;;16.89;48.44;103217.91;4968054;28;115028;-78
2022/04/16 09:32:24;;;;;;;9.48;5.75;;;;;;;16.96;48.29;103212.38;4968652;28;115432;-78
2022/04/16 09:34:54;;;;;;;8.85;5.50;;;;;;;17.00;47.46;103219.38;4968400;28;123946;-78
2022/04/16 09:37:24;;;;;;;9.63;5.65;;;;;;;17.02;47.17;103217.50;4967672;28;123665;-78
2022/04/16 09:39:53;;;;;;;10.05;5.80;;;;;;;17.07;47.52;103210.19;4968364;28;114421;-78
2022/04/16 09:42:27;;;;;;;9.05;5.95;;;;;;;17.15;47.48;103205.44;4969623;28;114066;-78
2022/04/16 09:44:54;;;;;;;7.72;4.95;;;;;;;17.25;47.67;103206.88;4968483;28;124613;-78
2022/04/16 09:47:25;;;;;;;8.25;5.22;;;;;;;17.37;47.54;103202.03;4966297;28;123950;-78
2022/04/16 09:49:54;;;;;;;8.13;5.38;;;;;;;17.49;46.96;103206.91;4969190;28;113673;-78
2022/04/16 09:52:23;;;;;;;9.05;5.63;;;;;;;17.57;46.60;103198.59;4972661;28;114197;-78
2022/04/16 09:54:52;;;;;;;8.27;5.30;;;;;;;17.62;46.65;103202.84;4970235;28;123641;-78
2022/04/16 09:57:22;;;;;;;8.88;5.00;;;;;;;17.66;46.40;103199.13;4980086;28;123877;-78
2022/04/16 09:59:52;;;;;;;10.18;5.30;;;;;;;17.73;46.73;103193.56;4949387;28;113489;-78
2022/04/16 10:02:21;;;;;;;7.82;5.38;;;;;;;17.82;46.58;103204.81;4950448;28;113847;-78
2022/04/16 10:04:48;;;;;;;9.40;5.40;;;;;;;17.91;46.32;103198.22;4953697;28;124502;-77
2022/04/16 10:07:17;;;;;;;7.47;5.28;;;;;;;17.97;46.11;103195.34;4963726;28;124370;-77
2022/04/16 10:09:46;;;;;;;6.97;4.70;;;;;;;18.06;46.08;103186.94;4951042;28;114919;-77
2022/04/16 10:15:08;;;;;;;8.75;5.53;;;;;;;18.11;44.44;103188.56;4963213;28;122222;-78
2022/04/16 10:17:49;;;;;;;9.23;5.28;;;;;;;18.14;44.85;103193.78;4946850;28;123851;-77
2022/04/16 10:20:21;;;;;;;8.65;5.45;;;;;;;18.16;44.12;103191.91;4949460;28;114394;-77
2022/04/16 10:22:58;;;;;;;8.50;5.35;;;;;;;18.13;44.02;103186.69;4948068;28;114973;-77
2022/04/16 10:25:39;;;;;;;9.48;5.22;;;;;;;18.14;44.07;103177.69;4947143;28;122237;-78
2022/04/16 10:28:16;;;;;;;7.75;4.68;;;;;;;18.16;44.05;103170.44;4934392;28;124097;-78
2022/04/16 10:30:53;;;;;;;6.80;4.22;;;;;;;18.21;44.25;103173.81;4968699;28;112540;-78
2022/04/16 10:33:23;;;;;;;7.30;4.97;;;;;;;18.26;44.04;103170.03;4966817;28;113737;-78
2022/04/16 10:36:01;;;;;;;8.00;5.22;;;;;;;18.31;43.04;103179.69;4949982;28;123156;-78
2022/04/16 10:38:40;;;;;;;8.15;5.05;;;;;;;18.23;42.87;103171.97;4945903;28;124553;-78
2022/04/16 10:41:14;;;;;;;7.13;4.60;;;;;;;18.18;42.45;103176.66;4949681;28;114069;-79
2022/04/16 10:43:59;;;;;;;;;;;;;;;18.11;43.22;103173.31;4953265;28;114096;-78
2022/04/16 10:46:46;;;;;;;6.90;4.63;;;;;;;18.19;43.47;103181.06;4951814;28;124200;-79
2022/04/16 10:49:22;;;;;;;5.05;3.28;;;;;;;18.22;42.61;103170.22;4973721;28;124256;-78
2022/04/16 10:51:50;;;;;;;5.13;3.35;;;;;;;18.22;41.93;103176.47;4958419;28;114671;-78
2022/04/16 10:54:32;;;;;;;6.18;3.60;;;;;;;18.22;41.65;103170.22;4958180;28;113529;-78
2022/04/16 10:57:01;;;;;;;4.90;3.63;;;;;;;18.23;41.86;103166.59;4957828;28;124216;-79
2022/04/16 10:59:35;;;;;;;6.53;4.38;;;;;;;18.26;42.00;103171.84;4957509;28;123424;-79
2022/04/16 11:02:19;;;;;;;7.68;4.40;;;;;;;18.33;42.35;103173.34;4967999;28;114275;-79
2022/04/16 11:05:00;;;;;;;7.50;4.68;;;;;;;18.42;42.65;103175.66;4959392;28;113663;-80
2022/04/16 11:07:30;;;;;;;7.63;4.38;;;;;;;18.47;42.16;103170.94;4964830;28;123295;-81
2022/04/16 11:09:57;;;;;;;6.18;4.45;;;;;;;18.52;41.54;103167.22;4964244;28;123775;-80
2022/04/16 11:12:25;;;;;;;7.68;4.50;;;;;;;18.49;41.16;103162.84;4943432;28;115440;-78
2022/04/16 11:14:54;;;;;;;6.00;3.92;;;;;;;18.49;42.16;103169.06;4959728;28;114623;-79
2022/04/16 11:17:21;;;;;;;5.55;3.80;;;;;;;18.60;41.29;103176.69;4957232;28;124581;-81
2022/04/16 11:20:01;;;;;;;6.18;3.67;;;;;;;18.63;41.29;103168.53;4966247;28;124096;-78
2022/04/16 11:22:29;;;;;;;4.70;3.17;;;;;;;18.72;41.44;103169.94;4968216;28;113420;-79
2022/04/16 11:24:58;;;;;;;5.72;3.85;;;;;;;18.81;40.88;103169.56;4968211;28;113409;-79
2022/04/16 11:35:55;;;;;;;5.53;3.20;;;;;;;18.99;39.55;103164.38;4970248;28;113811;-79
2022/04/16 11:38:29;;;;;;;7.55;3.83;;;;;;;19.06;39.71;103163.13;4971619;28;123752;-78
2022/04/16 11:40:59;;;;;;;4.22;3.05;;;;;;;19.11;38.85;103155.75;4965883;28;123758;-78